Currently 70°F in Riverside (Orangecrest), California, USA
70°F
73°F / 56°F
4 mph SW
0.00"
Tuesday, October 16, 2018 6:16 PM PDT

Riverside (Orangecrest), California Weather Summary
Last 36 Hours

Temperature Winds Hourly Humidity Dewpoint
Time Report Norm Report Norm Max Gusts Precip. Rpt. Norm Rpt. Norm Pressure
1Tue 06:16 PM  70.0°F  72°F  4 mph SW  6 mph  13 mph  0.00"  7%  37%  0°F  43°F  30.03"
Tue 06:00 PM  70.7°F  73°F  9 mph S  6 mph  23 mph  0.00"  6%  36%  -2°F  43°F  30.03"
Tue 05:00 PM  71.9°F  76°F  14 mph S  6 mph  22 mph  0.00"  6%  29%  -3°F  41°F  30.01"
2Tue 04:28 PM  72.9°F  77°F  11 mph S  6 mph  20 mph  ----  6%  28%  -1°F  40°F  30.02"
Tue 04:00 PM  72.4°F  77°F  12 mph S  6 mph  25 mph  0.00"  6%  27%  -2°F  39°F  30.02"
Tue 03:00 PM  71.9°F  77°F  19 mph S  7 mph  29 mph  0.00"  5%  27%  -6°F  39°F  30.02"
Tue 02:00 PM  70.8°F  76°F  19 mph S  7 mph  27 mph  0.00"  6%  27%  -4°F  39°F  30.03"
Tue 01:00 PM  71.1°F  75°F  13 mph S  6 mph  28 mph  0.00"  6%  29%  -3°F  40°F  30.06"
Tue 12:00 PM  71.1°F  74°F  10 mph S  6 mph  24 mph  0.00"  6%  31%  -2°F  40°F  30.07"
Tue 11:00 AM  68.8°F  72°F  13 mph S  5 mph  22 mph  0.00"  7%  35%  -1°F  41°F  30.10"
Tue 10:00 AM  67.8°F  67°F  8 mph S  3 mph  24 mph  0.00"  9%  45%  3°F  45°F  30.10"
Tue 09:00 AM  65.4°F  64°F  10 mph S  3 mph  16 mph  0.00"  10%  53%  5°F  46°F  30.09"
Tue 08:00 AM  63.8°F  61°F  6 mph SW  2 mph  21 mph  0.00"  10%  56%  4°F  45°F  30.08"
Tue 07:00 AM  62.4°F  61°F  5 mph SW  2 mph  13 mph  0.00"  9%  57%  1°F  45°F  30.07"
Tue 06:00 AM  61.5°F  61°F  4 mph S  2 mph  15 mph  0.00"  10%  56%  3°F  44°F  30.07"
Tue 05:00 AM  61.4°F  61°F  2 mph S  2 mph  13 mph  0.00"  10%  56%  2°F  45°F  30.06"
Tue 04:00 AM  60.4°F  62°F  6 mph S  2 mph  11 mph  0.00"  11%  55%  2°F  45°F  30.06"
Tue 03:00 AM  61.8°F  62°F  2 mph S  2 mph  10 mph  0.00"  9%  55%  -1°F  45°F  30.05"
Tue 02:00 AM  61.5°F  63°F  calm  2 mph  6 mph  0.00"  8%  55%  -3°F  46°F  30.06"
3Tue 01:25 AM  56.3°F  63°F  4 mph SW  2 mph  6 mph  ----  17%  54%  10°F  46°F  30.07"
Tue 01:00 AM  63.4°F  63°F  3 mph SW  2 mph  5 mph  0.00"  7%  55%  -6°F  46°F  30.07"
Tue 12:00 AM  64.4°F  64°F  calm  3 mph  8 mph  0.00"  6%  57%  -9°F  47°F  30.08"
Mon 11:00 PM  62.6°F  65°F  4 mph SW  3 mph  7 mph  0.00"  7%  57%  -7°F  48°F  30.07"
Mon 10:00 PM  61.9°F  65°F  calm  2 mph  11 mph  0.00"  7%  55%  -8°F  49°F  30.06"
Mon 09:00 PM  64.8°F  67°F  1 mph S  2 mph  8 mph  0.00"  6%  52%  -8°F  48°F  30.06"
Mon 08:00 PM  65.7°F  68°F  5 mph SW  3 mph  28 mph  0.00"  5%  49%  -11°F  48°F  30.06"
Mon 07:00 PM  65.1°F  70°F  6 mph SW  4 mph  17 mph  0.00"  6%  44%  -7°F  47°F  30.06"
Mon 06:00 PM  66.4°F  73°F  10 mph SW  6 mph  28 mph  0.00"  6%  39%  -6°F  45°F  30.06"
Mon 05:00 PM  68.0°F  76°F  19 mph S  6 mph  31 mph  0.00"  6%  32%  -6°F  43°F  30.05"
Mon 04:00 PM  68.5°F  78°F  12 mph S  5 mph  32 mph  0.00"  6%  29%  -3°F  41°F  30.05"
Mon 03:00 PM  68.1°F  77°F  16 mph S  6 mph  35 mph  0.00"  7%  28%  -2°F  41°F  30.05"
Mon 02:00 PM  67.3°F  77°F  20 mph S  6 mph  36 mph  0.00"  7%  29%  -2°F  41°F  30.06"
Mon 01:00 PM  66.4°F  76°F  18 mph S  4 mph  26 mph  0.00"  9%  31%  2°F  41°F  30.10"
Mon 12:00 PM  65.8°F  74°F  14 mph S  5 mph  34 mph  0.01"  11%  33%  7°F  42°F  30.13"
Mon 11:00 AM  63.6°F  72°F  16 mph S  4 mph  29 mph  0.00"  11%  37%  6°F  43°F  30.12"
Mon 10:00 AM  61.3°F  68°F  15 mph S  2 mph  40 mph  0.00"  11%  46%  3°F  46°F  30.15"
Mon 09:00 AM  59.6°F  65°F  17 mph S  2 mph  33 mph  0.00"  12%  53%  5°F  46°F  30.13"
Mon 08:00 AM  60.9°F  62°F  6 mph S  2 mph  28 mph  0.00"  11%  56%  4°F  45°F  30.13"
Mon 07:00 AM  59.8°F  61°F  15 mph S  2 mph  36 mph  0.04"  12%  56%  4°F  45°F  30.12"

  1. Current weather data. No green row appears if the current weather data is also the high or low for the current day.
  2. High temperature for the current day.
  3. Low temperature for the current day.

The Riverside (Orangecrest), California weather pages are a service of WeatherCurrents.
Copyright ©Tue Oct 16 18:17:17 PDT 2018  WeatherCurrents. All rights reserved. - Submit questions and comments - Privacy Policy

This page automatically refreshes every 10 minutes.